Terminal Aerodrome Forecast
Issued by NWS Quad Cities IA IL

Home | Current Version | Previous Version | Text Only | Print | Product List | Glossary On
Versions: 1 2 3 4 5 6 7 8 9 10 11 12 13 14 15 16 17
766
FTUS43 KDVN 131919 RRA
TAFMLI
TAF
KMLI 131919Z 1319/1418 31005KT P6SM SCT250
     FM132300 VRB03KT P6SM OVC120
     FM140700 13007KT 6SM -SN OVC070
     FM141200 13015KT 3/4SM -SN OVC015=

USA.gov is the U.S. government's official web portal to all federal, state and local government web resources and services.